sensor_id;sensor_type;location;lat;lon;timestamp;pressure;altitude;pressure_sealevel;temperature;humidity
50123;BME280;36021;48.670;6.184;2022-11-20T00:00:48;98715.44;;;8.00;100.00
50123;BME280;36021;48.670;6.184;2022-11-20T00:03:13;98713.53;;;8.00;100.00
50123;BME280;36021;48.670;6.184;2022-11-20T00:05:39;98716.78;;;8.02;100.00
50123;BME280;36021;48.670;6.184;2022-11-20T00:08:04;98713.59;;;7.90;100.00
50123;BME280;36021;48.670;6.184;2022-11-20T00:10:31;98723.72;;;7.95;100.00
50123;BME280;36021;48.670;6.184;2022-11-20T00:12:58;98722.34;;;7.92;100.00
50123;BME280;36021;48.670;6.184;2022-11-20T00:15:25;98718.25;;;7.90;100.00
50123;BME280;36021;48.670;6.184;2022-11-20T00:17:50;98726.16;;;7.96;100.00
50123;BME280;36021;48.670;6.184;2022-11-20T00:20:16;98712.19;;;7.93;100.00
50123;BME280;36021;48.670;6.184;2022-11-20T00:22:41;98720.09;;;7.99;100.00
50123;BME280;36021;48.670;6.184;2022-11-20T00:25:07;98712.19;;;7.93;100.00
50123;BME280;36021;48.670;6.184;2022-11-20T00:27:33;98705.28;;;8.00;100.00
50123;BME280;36021;48.670;6.184;2022-11-20T00:29:58;98714.09;;;7.97;100.00
50123;BME280;36021;48.670;6.184;2022-11-20T00:32:24;98715.19;;;7.96;100.00
50123;BME280;36021;48.670;6.184;2022-11-20T00:34:50;98718.44;;;8.03;100.00
50123;BME280;36021;48.670;6.184;2022-11-20T00:37:15;98715.16;;;8.01;100.00
50123;BME280;36021;48.670;6.184;2022-11-20T00:39:41;98714.03;;;8.02;100.00
50123;BME280;36021;48.670;6.184;2022-11-20T00:42:07;98712.38;;;8.06;100.00
50123;BME280;36021;48.670;6.184;2022-11-20T00:44:32;98707.53;;;7.93;100.00
50123;BME280;36021;48.670;6.184;2022-11-20T00:46:58;98711.94;;;7.94;100.00
50123;BME280;36021;48.670;6.184;2022-11-20T00:49:23;98721.31;;;7.88;100.00
50123;BME280;36021;48.670;6.184;2022-11-20T00:51:49;98713.34;;;7.86;100.00
50123;BME280;36021;48.670;6.184;2022-11-20T00:54:15;98716.06;;;7.92;100.00
50123;BME280;36021;48.670;6.184;2022-11-20T00:56:40;98714.16;;;7.87;100.00
50123;BME280;36021;48.670;6.184;2022-11-20T00:59:08;98711.38;;;7.92;100.00
50123;BME280;36021;48.670;6.184;2022-11-20T01:01:35;98707.53;;;7.93;100.00
50123;BME280;36021;48.670;6.184;2022-11-20T01:04:02;98712.19;;;7.93;100.00
50123;BME280;36021;48.670;6.184;2022-11-20T01:06:33;98707.84;;;7.92;100.00
50123;BME280;36021;48.670;6.184;2022-11-20T01:09:01;98711.44;;;7.82;100.00
50123;BME280;36021;48.670;6.184;2022-11-20T01:11:30;98717.28;;;7.75;100.00
50123;BME280;36021;48.670;6.184;2022-11-20T01:13:57;98714.75;;;7.84;100.00
50123;BME280;36021;48.670;6.184;2022-11-20T01:16:36;98711.44;;;7.87;100.00
50123;BME280;36021;48.670;6.184;2022-11-20T01:19:04;98704.91;;;7.78;100.00
50123;BME280;36021;48.670;6.184;2022-11-20T01:21:33;98706.25;;;7.80;100.00
50123;BME280;36021;48.670;6.184;2022-11-20T01:24:00;98713.16;;;7.73;100.00
50123;BME280;36021;48.670;6.184;2022-11-20T01:26:28;98708.75;;;7.77;100.00
50123;BME280;36021;48.670;6.184;2022-11-20T01:28:55;98710.91;;;7.80;100.00
50123;BME280;36021;48.670;6.184;2022-11-20T01:31:30;98711.59;;;7.62;100.00
50123;BME280;36021;48.670;6.184;2022-11-20T01:33:58;98713.72;;;7.70;100.00
50123;BME280;36021;48.670;6.184;2022-11-20T01:36:27;98714.53;;;7.70;100.00
50123;BME280;36021;48.670;6.184;2022-11-20T01:38:55;98708.81;;;7.67;100.00
50123;BME280;36021;48.670;6.184;2022-11-20T01:41:23;98707.16;;;7.66;100.00
50123;BME280;36021;48.670;6.184;2022-11-20T01:44:10;98709.41;;;7.59;100.00
50123;BME280;36021;48.670;6.184;2022-11-20T01:46:38;98707.72;;;7.68;100.00
50123;BME280;36021;48.670;6.184;2022-11-20T01:49:11;98710.72;;;7.71;100.00
50123;BME280;36021;48.670;6.184;2022-11-20T01:54:10;98697.56;;;7.68;100.00
50123;BME280;36021;48.670;6.184;2022-11-20T01:56:42;98700.56;;;7.72;100.00
50123;BME280;36021;48.670;6.184;2022-11-20T01:59:12;98702.19;;;7.73;100.00
50123;BME280;36021;48.670;6.184;2022-11-20T02:01:38;98703.88;;;7.69;100.00
50123;BME280;36021;48.670;6.184;2022-11-20T02:04:06;98704.09;;;7.77;100.00
50123;BME280;36021;48.670;6.184;2022-11-20T02:06:40;98705.97;;;7.82;100.00
50123;BME280;36021;48.670;6.184;2022-11-20T02:09:08;98703.19;;;7.87;100.00
50123;BME280;36021;48.670;6.184;2022-11-20T02:11:33;98704.59;;;7.84;100.00
50123;BME280;36021;48.670;6.184;2022-11-20T02:13:59;98711.78;;;7.75;100.00
50123;BME280;36021;48.670;6.184;2022-11-20T02:16:33;98715.63;;;7.74;100.00
50123;BME280;36021;48.670;6.184;2022-11-20T02:19:01;98712.00;;;7.84;100.00
50123;BME280;36021;48.670;6.184;2022-11-20T02:21:49;98713.91;;;7.83;100.00
50123;BME280;36021;48.670;6.184;2022-11-20T02:24:21;98711.44;;;7.82;100.00
50123;BME280;36021;48.670;6.184;2022-11-20T02:26:51;98709.28;;;7.79;100.00
50123;BME280;36021;48.670;6.184;2022-11-20T02:29:23;98706.31;;;7.75;100.00
50123;BME280;36021;48.670;6.184;2022-11-20T02:31:51;98708.03;;;7.56;100.00
50123;BME280;36021;48.670;6.184;2022-11-20T02:34:17;98711.03;;;7.60;100.00
50123;BME280;36021;48.670;6.184;2022-11-20T02:36:44;98711.59;;;7.62;100.00
50123;BME280;36021;48.670;6.184;2022-11-20T02:39:13;98702.56;;;7.56;100.00
50123;BME280;36021;48.670;6.184;2022-11-20T02:41:38;98707.56;;;7.49;100.00
50123;BME280;36021;48.670;6.184;2022-11-20T02:44:05;98707.25;;;7.56;100.00
50123;BME280;36021;48.670;6.184;2022-11-20T02:46:31;98706.16;;;7.52;100.00
50123;BME280;36021;48.670;6.184;2022-11-20T02:48:58;98702.56;;;7.56;100.00
50123;BME280;36021;48.670;6.184;2022-11-20T02:51:23;98702.31;;;7.53;100.00
50123;BME280;36021;48.670;6.184;2022-11-20T02:53:49;98704.00;;;7.49;100.00
50123;BME280;36021;48.670;6.184;2022-11-20T02:56:16;98702.31;;;7.53;100.00
50123;BME280;36021;48.670;6.184;2022-11-20T02:58:42;98700.13;;;7.55;100.00
50123;BME280;36021;48.670;6.184;2022-11-20T03:01:08;98704.47;;;7.61;100.00
50123;BME280;36021;48.670;6.184;2022-11-20T03:03:33;98703.94;;;7.54;100.00
50123;BME280;36021;48.670;6.184;2022-11-20T03:05:59;98706.38;;;7.60;100.00
50123;BME280;36021;48.670;6.184;2022-11-20T03:08:25;98713.78;;;7.65;100.00
50123;BME280;36021;48.670;6.184;2022-11-20T03:10:51;98696.19;;;7.66;100.00
50123;BME280;36021;48.670;6.184;2022-11-20T03:13:20;98700.88;;;7.65;100.00
50123;BME280;36021;48.670;6.184;2022-11-20T03:15:47;98693.94;;;7.73;100.00
50123;BME280;36021;48.670;6.184;2022-11-20T03:18:12;98691.19;;;7.78;100.00
50123;BME280;36021;48.670;6.184;2022-11-20T03:20:39;98693.38;;;7.81;100.00
50123;BME280;36021;48.670;6.184;2022-11-20T03:23:04;98685.41;;;7.79;100.00
50123;BME280;36021;48.670;6.184;2022-11-20T03:25:30;98690.06;;;7.79;100.00
50123;BME280;36021;48.670;6.184;2022-11-20T03:27:56;98683.22;;;7.81;100.00
50123;BME280;36021;48.670;6.184;2022-11-20T03:30:21;98684.84;;;7.82;100.00
50123;BME280;36021;48.670;6.184;2022-11-20T03:32:47;98673.25;;;7.91;100.00
50123;BME280;36021;48.670;6.184;2022-11-20T03:35:15;98674.13;;;7.86;100.00
50123;BME280;36021;48.670;6.184;2022-11-20T03:37:41;98668.34;;;7.88;100.00
50123;BME280;36021;48.670;6.184;2022-11-20T03:40:06;98662.81;;;7.93;100.00
50123;BME280;36021;48.670;6.184;2022-11-20T03:42:32;98671.28;;;7.96;100.00
50123;BME280;36021;48.670;6.184;2022-11-20T03:45:10;98669.63;;;8.00;100.00
50123;BME280;36021;48.670;6.184;2022-11-20T03:47:36;98670.22;;;7.92;100.00
50123;BME280;36021;48.670;6.184;2022-11-20T03:50:03;98672.97;;;7.92;100.00
50123;BME280;36021;48.670;6.184;2022-11-20T03:52:28;98668.09;;;7.84;100.00
50123;BME280;36021;48.670;6.184;2022-11-20T03:54:54;98673.78;;;7.93;100.00
50123;BME280;36021;48.670;6.184;2022-11-20T03:57:20;98666.91;;;7.95;100.00
50123;BME280;36021;48.670;6.184;2022-11-20T03:59:47;98670.78;;;7.94;100.00
50123;BME280;36021;48.670;6.184;2022-11-20T04:02:12;98672.38;;;7.95;100.00
50123;BME280;36021;48.670;6.184;2022-11-20T04:04:38;98670.22;;;7.92;100.00
50123;BME280;36021;48.670;6.184;2022-11-20T04:07:03;98681.19;;;7.92;100.00
50123;BME280;36021;48.670;6.184;2022-11-20T04:09:29;98681.75;;;7.94;100.00
50123;BME280;36021;48.670;6.184;2022-11-20T04:11:54;98676.19;;;7.99;100.00
50123;BME280;36021;48.670;6.184;2022-11-20T04:14:22;98677.88;;;7.95;100.00
50123;BME280;36021;48.670;6.184;2022-11-20T04:16:49;98680.63;;;7.95;100.00
50123;BME280;36021;48.670;6.184;2022-11-20T04:19:16;98679.28;;;7.93;100.00
50123;BME280;36021;48.670;6.184;2022-11-20T04:21:43;98673.25;;;7.91;100.00
50123;BME280;36021;48.670;6.184;2022-11-20T04:24:09;98675.25;;;7.85;100.00
50123;BME280;36021;48.670;6.184;2022-11-20T04:26:36;98673.03;;;7.82;100.00
50123;BME280;36021;48.670;6.184;2022-11-20T04:29:02;98679.84;;;7.90;100.00
50123;BME280;36021;48.670;6.184;2022-11-20T04:31:30;98673.53;;;7.89;100.00
50123;BME280;36021;48.670;6.184;2022-11-20T04:34:00;98668.59;;;7.91;100.00
50123;BME280;36021;48.670;6.184;2022-11-20T04:36:27;98670.84;;;7.84;100.00
50123;BME280;36021;48.670;6.184;2022-11-20T04:38:59;98674.13;;;7.86;100.00
50123;BME280;36021;48.670;6.184;2022-11-20T04:41:28;98679.06;;;7.84;100.00
50123;BME280;36021;48.670;6.184;2022-11-20T04:43:55;98678.78;;;7.85;100.00
50123;BME280;36021;48.670;6.184;2022-11-20T04:46:30;98672.44;;;7.90;100.00
50123;BME280;36021;48.670;6.184;2022-11-20T04:48:56;98677.97;;;7.85;100.00
50123;BME280;36021;48.670;6.184;2022-11-20T04:51:23;98681.25;;;7.87;100.00
50123;BME280;36021;48.670;6.184;2022-11-20T04:53:48;98684.50;;;7.89;100.00
50123;BME280;36021;48.670;6.184;2022-11-20T04:56:15;98680.66;;;7.90;100.00
50123;BME280;36021;48.670;6.184;2022-11-20T04:58:42;98683.47;;;7.85;100.00
50123;BME280;36021;48.670;6.184;2022-11-20T05:01:19;98679.34;;;7.82;100.00
50123;BME280;36021;48.670;6.184;2022-11-20T05:03:45;98682.91;;;7.88;100.00
50123;BME280;36021;48.670;6.184;2022-11-20T05:06:14;98681.81;;;7.84;100.00
50123;BME280;36021;48.670;6.184;2022-11-20T05:08:40;98686.75;;;7.82;100.00
50123;BME280;36021;48.670;6.184;2022-11-20T05:11:12;98688.13;;;7.84;100.00
50123;BME280;36021;48.670;6.184;2022-11-20T05:13:38;98689.50;;;7.82;100.00
50123;BME280;36021;48.670;6.184;2022-11-20T05:16:09;98679.03;;;7.89;100.00
50123;BME280;36021;48.670;6.184;2022-11-20T05:18:36;98681.50;;;7.85;100.00
50123;BME280;36021;48.670;6.184;2022-11-20T05:21:03;98680.66;;;7.90;100.00
50123;BME280;36021;48.670;6.184;2022-11-20T05:23:30;98673.78;;;7.93;100.00
50123;BME280;36021;48.670;6.184;2022-11-20T05:25:57;98677.41;;;7.88;100.00
50123;BME280;36021;48.670;6.184;2022-11-20T05:28:24;98674.94;;;7.86;100.00
50123;BME280;36021;48.670;6.184;2022-11-20T05:30:50;98686.22;;;7.80;100.00
50123;BME280;36021;48.670;6.184;2022-11-20T05:33:16;98681.50;;;7.85;100.00
50123;BME280;36021;48.670;6.184;2022-11-20T05:35:43;98683.16;;;7.92;100.00
50123;BME280;36021;48.670;6.184;2022-11-20T05:38:09;98684.50;;;7.89;100.00
50123;BME280;36021;48.670;6.184;2022-11-20T05:40:35;98685.88;;;7.92;100.00
50123;BME280;36021;48.670;6.184;2022-11-20T05:43:01;98683.38;;;7.95;100.00
50123;BME280;36021;48.670;6.184;2022-11-20T05:45:27;98682.56;;;7.95;100.00
50123;BME280;36021;48.670;6.184;2022-11-20T05:47:52;98682.56;;;7.95;100.00
50123;BME280;36021;48.670;6.184;2022-11-20T05:50:18;98689.16;;;7.94;100.00
50123;BME280;36021;48.670;6.184;2022-11-20T05:52:44;98689.41;;;7.92;100.00
50123;BME280;36021;48.670;6.184;2022-11-20T05:55:09;98689.41;;;7.92;100.00
50123;BME280;36021;48.670;6.184;2022-11-20T05:57:35;98685.63;;;7.88;100.00
50123;BME280;36021;48.670;6.184;2022-11-20T06:00:02;98685.09;;;7.86;100.00
50123;BME280;36021;48.670;6.184;2022-11-20T06:02:30;98686.22;;;7.80;100.00
50123;BME280;36021;48.670;6.184;2022-11-20T06:04:55;98685.72;;;7.73;100.00
50123;BME280;36021;48.670;6.184;2022-11-20T06:07:21;98679.97;;;7.74;100.00
50123;BME280;36021;48.670;6.184;2022-11-20T06:09:46;98688.78;;;7.71;100.00
50123;BME280;36021;48.670;6.184;2022-11-20T06:12:12;98680.31;;;7.63;100.00
50123;BME280;36021;48.670;6.184;2022-11-20T06:14:38;98683.03;;;7.63;100.00
50123;BME280;36021;48.670;6.184;2022-11-20T06:17:03;98690.47;;;7.62;100.00
50123;BME280;36021;48.670;6.184;2022-11-20T06:19:29;98691.59;;;7.56;100.00
50123;BME280;36021;48.670;6.184;2022-11-20T06:21:54;98692.41;;;7.57;100.00
50123;BME280;36021;48.670;6.184;2022-11-20T06:24:20;98682.59;;;7.51;100.00
50123;BME280;36021;48.670;6.184;2022-11-20T06:26:45;98689.66;;;7.57;100.00
50123;BME280;36021;48.670;6.184;2022-11-20T06:29:11;98689.16;;;7.55;100.00
50123;BME280;36021;48.670;6.184;2022-11-20T06:31:37;98691.03;;;7.59;100.00
50123;BME280;36021;48.670;6.184;2022-11-20T06:34:04;98693.28;;;7.52;100.00
50123;BME280;36021;48.670;6.184;2022-11-20T06:36:31;98697.59;;;7.63;100.00
50123;BME280;36021;48.670;6.184;2022-11-20T06:38:59;98694.69;;;7.45;100.00
50123;BME280;36021;48.670;6.184;2022-11-20T06:41:25;98704.25;;;7.52;100.00
50123;BME280;36021;48.670;6.184;2022-11-20T06:43:51;98699.06;;;7.46;100.00
50123;BME280;36021;48.670;6.184;2022-11-20T06:46:17;98709.44;;;7.54;100.00
50123;BME280;36021;48.670;6.184;2022-11-20T06:48:43;98704.22;;;7.57;100.00
50123;BME280;36021;48.670;6.184;2022-11-20T06:51:09;98713.00;;;7.54;100.00
50123;BME280;36021;48.670;6.184;2022-11-20T06:53:35;98712.22;;;7.49;100.00
50123;BME280;36021;48.670;6.184;2022-11-20T06:56:01;98715.75;;;7.54;100.00
50123;BME280;36021;48.670;6.184;2022-11-20T06:58:30;98718.75;;;7.53;100.00
50123;BME280;36021;48.670;6.184;2022-11-20T07:01:00;98711.66;;;7.47;100.00
50123;BME280;36021;48.670;6.184;2022-11-20T07:03:27;98716.31;;;7.46;100.00
50123;BME280;36021;48.670;6.184;2022-11-20T07:05:55;98718.00;;;7.42;100.00
50123;BME280;36021;48.670;6.184;2022-11-20T07:08:21;98723.50;;;7.37;100.00
50123;BME280;36021;48.670;6.184;2022-11-20T07:10:47;98728.72;;;7.39;100.00
50123;BME280;36021;48.670;6.184;2022-11-20T07:13:12;98727.38;;;7.36;100.00
50123;BME280;36021;48.670;6.184;2022-11-20T07:15:39;98727.91;;;7.33;100.00
50123;BME280;36021;48.670;6.184;2022-11-20T07:18:05;98726.81;;;7.39;100.00
50123;BME280;36021;48.670;6.184;2022-11-20T07:20:32;98733.63;;;7.42;100.00
50123;BME280;36021;48.670;6.184;2022-11-20T07:22:57;98729.81;;;7.38;100.00
50123;BME280;36021;48.670;6.184;2022-11-20T07:25:27;98735.81;;;7.45;100.00
50123;BME280;36021;48.670;6.184;2022-11-20T07:27:56;98751.16;;;7.46;100.00
50123;BME280;36021;48.670;6.184;2022-11-20T07:30:22;98748.94;;;7.48;100.00
50123;BME280;36021;48.670;6.184;2022-11-20T07:32:52;98745.38;;;7.47;100.00
50123;BME280;36021;48.670;6.184;2022-11-20T07:35:19;98751.44;;;7.49;100.00
50123;BME280;36021;48.670;6.184;2022-11-20T07:37:46;98745.69;;;7.46;100.00
50123;BME280;36021;48.670;6.184;2022-11-20T07:40:12;98750.59;;;7.49;100.00
50123;BME280;36021;48.670;6.184;2022-11-20T07:42:38;98754.97;;;7.50;100.00
50123;BME280;36021;48.670;6.184;2022-11-20T07:45:07;98758.28;;;7.47;100.00
50123;BME280;36021;48.670;6.184;2022-11-20T07:47:36;98751.94;;;7.51;100.00
50123;BME280;36021;48.670;6.184;2022-11-20T07:50:02;98766.44;;;7.62;100.00
50123;BME280;36021;48.670;6.184;2022-11-20T07:52:28;98756.84;;;8.03;100.00
50123;BME280;36021;48.670;6.184;2022-11-20T07:54:55;98755.53;;;8.40;100.00
50123;BME280;36021;48.670;6.184;2022-11-20T07:57:21;98747.16;;;9.07;100.00
50123;BME280;36021;48.670;6.184;2022-11-20T07:59:47;98731.53;;;9.69;100.00
50123;BME280;36021;48.670;6.184;2022-11-20T08:02:12;98732.59;;;10.29;100.00
50123;BME280;36021;48.670;6.184;2022-11-20T08:04:38;98729.69;;;10.71;100.00
50123;BME280;36021;48.670;6.184;2022-11-20T08:07:04;98726.47;;;11.10;100.00
50123;BME280;36021;48.670;6.184;2022-11-20T08:09:29;98722.28;;;11.54;100.00
50123;BME280;36021;48.670;6.184;2022-11-20T08:11:55;98723.09;;;11.40;100.00
50123;BME280;36021;48.670;6.184;2022-11-20T08:14:39;98735.88;;;11.36;100.00
50123;BME280;36021;48.670;6.184;2022-11-20T08:17:04;98732.00;;;11.51;100.00
50123;BME280;36021;48.670;6.184;2022-11-20T08:19:30;98734.69;;;11.92;100.00
50123;BME280;36021;48.670;6.184;2022-11-20T08:21:56;98732.78;;;12.37;100.00
50123;BME280;36021;48.670;6.184;2022-11-20T08:24:21;98750.19;;;12.82;100.00
50123;BME280;36021;48.670;6.184;2022-11-20T08:26:47;98732.94;;;13.07;100.00
50123;BME280;36021;48.670;6.184;2022-11-20T08:29:12;98748.66;;;12.98;100.00
50123;BME280;36021;48.670;6.184;2022-11-20T08:31:38;98735.66;;;13.29;100.00
50123;BME280;36021;48.670;6.184;2022-11-20T08:34:04;98741.50;;;12.97;100.00
50123;BME280;36021;48.670;6.184;2022-11-20T08:36:32;98746.56;;;12.50;100.00
50123;BME280;36021;48.670;6.184;2022-11-20T08:38:58;98745.69;;;12.41;100.00
50123;BME280;36021;48.670;6.184;2022-11-20T08:41:24;98737.66;;;13.37;100.00
50123;BME280;36021;48.670;6.184;2022-11-20T08:43:58;98738.97;;;14.65;100.00
50123;BME280;36021;48.670;6.184;2022-11-20T08:46:25;98729.53;;;15.88;100.00
50123;BME280;36021;48.670;6.184;2022-11-20T08:48:52;98743.72;;;16.37;100.00
50123;BME280;36021;48.670;6.184;2022-11-20T08:51:18;98740.56;;;16.67;100.00
50123;BME280;36021;48.670;6.184;2022-11-20T08:53:44;98743.81;;;14.94;100.00
50123;BME280;36021;48.670;6.184;2022-11-20T08:56:12;98753.41;;;13.68;100.00
50123;BME280;36021;48.670;6.184;2022-11-20T08:58:38;98754.22;;;13.06;100.00
50123;BME280;36021;48.670;6.184;2022-11-20T09:01:04;98757.22;;;13.10;100.00
50123;BME280;36021;48.670;6.184;2022-11-20T09:03:30;98756.63;;;13.22;100.00
50123;BME280;36021;48.670;6.184;2022-11-20T09:06:00;98759.22;;;13.18;100.00
50123;BME280;36021;48.670;6.184;2022-11-20T09:08:27;98763.75;;;13.14;100.00
50123;BME280;36021;48.670;6.184;2022-11-20T09:10:54;98755.81;;;13.21;100.00
50123;BME280;36021;48.670;6.184;2022-11-20T09:13:24;98757.44;;;13.22;100.00
50123;BME280;36021;48.670;6.184;2022-11-20T09:16:01;98766.28;;;13.02;100.00
50123;BME280;36021;48.670;6.184;2022-11-20T09:18:28;98770.66;;;13.03;100.00
50123;BME280;36021;48.670;6.184;2022-11-20T09:20:57;98766.22;;;12.71;100.00
50123;BME280;36021;48.670;6.184;2022-11-20T09:23:23;98760.00;;;13.49;100.00
50123;BME280;36021;48.670;6.184;2022-11-20T09:25:48;98763.28;;;14.34;100.00
50123;BME280;36021;48.670;6.184;2022-11-20T09:28:14;98751.91;;;15.16;100.00
50123;BME280;36021;48.670;6.184;2022-11-20T09:30:39;98754.59;;;15.50;100.00
50123;BME280;36021;48.670;6.184;2022-11-20T09:33:05;98757.09;;;14.45;100.00
50123;BME280;36021;48.670;6.184;2022-11-20T09:35:33;98751.75;;;15.12;100.00
50123;BME280;36021;48.670;6.184;2022-11-20T09:38:07;98745.66;;;14.30;100.00
50123;BME280;36021;48.670;6.184;2022-11-20T09:40:34;98756.25;;;14.19;100.00
50123;BME280;36021;48.670;6.184;2022-11-20T09:43:12;98746.00;;;14.54;100.00
50123;BME280;36021;48.670;6.184;2022-11-20T09:46:04;98747.09;;;14.27;100.00
50123;BME280;36021;48.670;6.184;2022-11-20T09:54:17;98741.25;;;14.29;100.00
50123;BME280;36021;48.670;6.184;2022-11-20T09:57:32;98744.66;;;14.00;100.00
50123;BME280;36021;48.670;6.184;2022-11-20T09:59:46;98750.41;;;13.55;100.00
50123;BME280;36021;48.670;6.184;2022-11-20T10:04:57;98741.22;;;14.20;100.00
50123;BME280;36021;48.670;6.184;2022-11-20T10:07:32;98729.81;;;13.96;100.00
50123;BME280;36021;48.670;6.184;2022-11-20T10:10:00;98723.81;;;14.45;100.00
50123;BME280;36021;48.670;6.184;2022-11-20T10:21:29;98703.84;;;16.12;100.00
50123;BME280;36021;48.670;6.184;2022-11-20T10:29:27;98683.00;;;15.09;100.00
50123;BME280;36021;48.670;6.184;2022-11-20T10:31:59;98679.81;;;15.66;100.00
50123;BME280;36021;48.670;6.184;2022-11-20T10:34:48;98677.97;;;15.49;100.00
50123;BME280;36021;48.670;6.184;2022-11-20T10:37:19;98683.25;;;14.87;100.00
50123;BME280;36021;48.670;6.184;2022-11-20T10:39:51;98691.84;;;15.79;100.00
50123;BME280;36021;48.670;6.184;2022-11-20T10:42:31;98683.16;;;15.13;100.00
50123;BME280;36021;48.670;6.184;2022-11-20T10:45:28;98681.25;;;15.05;100.00
50123;BME280;36021;48.670;6.184;2022-11-20T10:50:35;98663.28;;;15.40;100.00
50123;BME280;36021;48.670;6.184;2022-11-20T10:56:05;98680.56;;;15.75;100.00
50123;BME280;36021;48.670;6.184;2022-11-20T10:58:44;98673.88;;;15.97;100.00
50123;BME280;36021;48.670;6.184;2022-11-20T11:01:20;98664.56;;;16.34;100.00
50123;BME280;36021;48.670;6.184;2022-11-20T11:03:50;98669.13;;;16.72;100.00
50123;BME280;36021;48.670;6.184;2022-11-20T11:08:47;98655.56;;;14.79;100.00
50123;BME280;36021;48.670;6.184;2022-11-20T11:11:27;98646.97;;;14.54;100.00
50123;BME280;36021;48.670;6.184;2022-11-20T11:14:09;98658.41;;;14.44;100.00
50123;BME280;36021;48.670;6.184;2022-11-20T11:16:55;98655.47;;;14.24;100.00
50123;BME280;36021;48.670;6.184;2022-11-20T11:19:21;98636.25;;;14.10;100.00
50123;BME280;36021;48.670;6.184;2022-11-20T11:21:49;98644.38;;;13.81;100.00
50123;BME280;36021;48.670;6.184;2022-11-20T11:26:52;98644.13;;;12.86;100.00
50123;BME280;36021;48.670;6.184;2022-11-20T11:29:18;98632.56;;;13.15;100.00
50123;BME280;36021;48.670;6.184;2022-11-20T11:31:45;98636.66;;;13.26;100.00
50123;BME280;36021;48.670;6.184;2022-11-20T11:34:15;98633.47;;;13.84;100.00
50123;BME280;36021;48.670;6.184;2022-11-20T11:36:42;98633.16;;;13.77;100.00
50123;BME280;36021;48.670;6.184;2022-11-20T11:39:18;98632.50;;;13.97;100.00
50123;BME280;36021;48.670;6.184;2022-11-20T11:41:43;98619.47;;;13.89;100.00
50123;BME280;36021;48.670;6.184;2022-11-20T11:44:21;98639.47;;;13.43;100.00
50123;BME280;36021;48.670;6.184;2022-11-20T11:47:31;98623.59;;;13.10;100.00
50123;BME280;36021;48.670;6.184;2022-11-20T11:50:15;98615.53;;;12.51;100.00
50123;BME280;36021;48.670;6.184;2022-11-20T11:55:22;98601.63;;;12.74;100.00
50123;BME280;36021;48.670;6.184;2022-11-20T11:58:06;98594.34;;;12.78;100.00
50123;BME280;36021;48.670;6.184;2022-11-20T12:00:33;98597.94;;;12.87;100.00
50123;BME280;36021;48.670;6.184;2022-11-20T12:03:24;98592.84;;;13.20;100.00
50123;BME280;36021;48.670;6.184;2022-11-20T12:05:58;98586.38;;;13.24;100.00
50123;BME280;36021;48.670;6.184;2022-11-20T12:08:31;98580.53;;;13.69;100.00
50123;BME280;36021;48.670;6.184;2022-11-20T12:11:05;98577.41;;;14.04;100.00
50123;BME280;36021;48.670;6.184;2022-11-20T12:13:44;98585.44;;;13.54;100.00
50123;BME280;36021;48.670;6.184;2022-11-20T12:16:19;98580.88;;;13.67;100.00
50123;BME280;36021;48.670;6.184;2022-11-20T12:18:46;98583.31;;;13.60;100.00
50123;BME280;36021;48.670;6.184;2022-11-20T12:40:27;98580.91;;;12.01;100.00
50123;BME280;36021;48.670;6.184;2022-11-20T12:43:24;98567.03;;;11.48;100.00
50123;BME280;36021;48.670;6.184;2022-11-20T12:46:13;98570.00;;;11.52;100.00
50123;BME280;36021;48.670;6.184;2022-11-20T12:51:37;98554.34;;;11.11;100.00
50123;BME280;36021;48.670;6.184;2022-11-20T13:02:36;98527.56;;;10.76;100.00
50123;BME280;36021;48.670;6.184;2022-11-20T13:05:16;98524.06;;;10.84;100.00
50123;BME280;36021;48.670;6.184;2022-11-20T13:07:43;98506.19;;;10.95;100.00
50123;BME280;36021;48.670;6.184;2022-11-20T13:10:41;98509.16;;;10.98;100.00
50123;BME280;36021;48.670;6.184;2022-11-20T13:13:26;98501.25;;;10.70;100.00
50123;BME280;36021;48.670;6.184;2022-11-20T13:16:07;98488.75;;;10.86;100.00
50123;BME280;36021;48.670;6.184;2022-11-20T13:18:39;98480.78;;;10.84;100.00
50123;BME280;36021;48.670;6.184;2022-11-20T13:21:22;98477.22;;;10.70;100.00
50123;BME280;36021;48.670;6.184;2022-11-20T13:23:49;98482.84;;;10.79;100.00
50123;BME280;36021;48.670;6.184;2022-11-20T13:26:19;98477.94;;;10.89;100.00
50123;BME280;36021;48.670;6.184;2022-11-20T13:28:47;98479.88;;;10.89;100.00
50123;BME280;36021;48.670;6.184;2022-11-20T13:31:48;98479.34;;;10.87;100.00
50123;BME280;36021;48.670;6.184;2022-11-20T13:34:27;98465.09;;;10.58;100.00
50123;BME280;36021;48.670;6.184;2022-11-20T13:36:55;98472.25;;;10.59;100.00
50123;BME280;36021;48.670;6.184;2022-11-20T13:39:29;98467.16;;;10.66;100.00
50123;BME280;36021;48.670;6.184;2022-11-20T13:42:02;98462.47;;;10.53;100.00
50123;BME280;36021;48.670;6.184;2022-11-20T13:44:47;98448.59;;;10.44;100.00
50123;BME280;36021;48.670;6.184;2022-11-20T13:47:24;98445.13;;;10.38;100.00
50123;BME280;36021;48.670;6.184;2022-11-20T13:49:51;98456.78;;;10.35;100.00
50123;BME280;36021;48.670;6.184;2022-11-20T13:52:42;98440.47;;;10.25;100.00
50123;BME280;36021;48.670;6.184;2022-11-20T13:55:12;98450.63;;;10.11;100.00
50123;BME280;36021;48.670;6.184;2022-11-20T14:00:21;98427.38;;;10.31;100.00
50123;BME280;36021;48.670;6.184;2022-11-20T14:05:46;98441.34;;;10.34;100.00
50123;BME280;36021;48.670;6.184;2022-11-20T14:08:23;98437.69;;;10.25;100.00
50123;BME280;36021;48.670;6.184;2022-11-20T14:10:50;98429.03;;;10.18;100.00
50123;BME280;36021;48.670;6.184;2022-11-20T14:13:20;98425.16;;;10.19;100.00
50123;BME280;36021;48.670;6.184;2022-11-20T14:15:45;98418.00;;;10.05;100.00
50123;BME280;36021;48.670;6.184;2022-11-20T14:18:20;98422.50;;;10.01;100.00
50123;BME280;36021;48.670;6.184;2022-11-20T14:20:47;98425.03;;;9.97;100.00